SARP/PSS METAR and TAF weather

Enter ICAO airport designator
Station Type Date Time Source
SARP METAR 2021/03/07 00:00 UTC NOAA

SARP 070000Z 18005KT CAVOK 25/17 Q1011


Station Type Date Time Source
SARP Decoded METAR 2021/03/07 00:00 UTC NOAA

Posadas Aero., Argentina (SARP) 27-22S 055-58W 133M
Mar 06, 2021 - 07:00 PM EST / 2021.03.07 0000 UTC
Wind: from the S (180 degrees) at 6 MPH (5 KT):0
Visibility: greater than 7 mile(s):0
Temperature: 77 F (25 C)
Dew Point: 62 F (17 C)
Relative Humidity: 61%
Pressure (altimeter): 29.85 in. Hg (1011 hPa)
ob: SARP 070000Z 18005KT CAVOK 25/17 Q1011
cycle: 0

Station Type Date Time Source
SARP TAF 2021/03/07 00:00 UTC NOAA

TAF SARP 062300Z 0700/0724 18005KT CAVOK TX32/0619Z TN20/0710Z
BECMG 0712/0714 9999 SCT030
BECMG 0721/0723 CAVOK

Example: see airport list